Pagrindinis puslapis
METAR-TAF:

METAR-TAF

Oro uostai :

Samas, Graikija

platuma: 37-42N, ilguma: 026-55E, Aukštis: 2 m

Dabartinis oras

Ataskaita buvo paskelbta 39 minutes, ne 18:20 UTC
Vėjas 12 kt iš Šiaurės
Temperatūra 25°C
Drėgmė 54%
Slėgis 1013 hPa
Matomumas 10 km arba daugiau
nėra debesų žemiau 1500 m ir nėra kamuolinių lietaus debesų

METAR: LGSM 151820Z 36012KT CAVOK 25/15 Q1013

Laikas: 21:59 (18:59 UTC)

Prognozė

Ataskaita buvo paskelbta 1 valandą ir 59 minutes, ne 17:00 UTC
Prognozė galioja nuo 15 metu 18 UTC su 16 metu 03 UTC
Vėjas 15 kt iš Šiaurės
Matomumas 10 km arba daugiau
Mažai debesys ne aukštis 3000 ft

TAF: LGSM 151700Z 1518/1603 01015KT 9999 FEW030

Orai ataskaitas ir orų prognozės (METAR, TAF).

turimą stotys yra geltonos ir raudonos taškus žemėlapyje.

Perkelti pele per norėdami pamatyti stoties vardą.

Tada spustelėkite, norėdami matyti oro stebėjimo ir prognozės.

Norėdami pakeisti žemėlapį: spustelėkite ant žalios mygtukų su juodo kryžiaus žemyn,; žalią mygtuką su brūkšneliu, jei norite nutolinti; arba žalių rodyklių gretimoms žemėlapius.


METAR-TAF: